Ride Results

National Capital Brookvale (18-10-2014)
Ride distance: 80.0 km

Outcomes - National Capital Brookvale (18-10-2014)
Division No. of Entries Retired / DNE Completed Withdrawn Ineligible V/O Percentage Completed
HW 5 - 5 - - - 100.00%
MW 13 - 11 1 1 - 84.62%
LW 9 - 8 1 - - 88.89%
JN 2 - 0 - 1 1 0.00%
Totals 29 - 24 2 2 1 82.76%
Results - National Capital Brookvale (18-10-2014)
No. Rider Horse Place Time Leg Speeds Total
Km/Hr
H/R bpm
Heavyweight
14 Robert Catlin Copperkahn Tiara 1 (BC) 5:58:00 13.6, 12.9 13.41 32, 32, 46 (Avg:39)
8 Thomas Hermann TTH Headliner 2 6:46:00 12.3, 10.9 11.82 25, 41, 52 (Avg:46)
2 Jack Johnson Sharahd Namaree 3 7:57:00 10.3, 9.6 10.06 37, 42, 49 (Avg:45)
10 Christopher Clarke Zastava Park Saruman 4 8:43:00 9.9, 8.1 9.18 42, 38, 45 (Avg:41)
9 Scott Peters Stoodleigh Colonial Boy 4 8:43:00 9.9, 8.1 9.18 36, 44, 54 (Avg:49)
Middleweight
12 Ian Curtis Blake's Heaven Summer Wind 1 (BC) 5:37:00 14.7, 13.4 14.24 32, 41, 52 (Avg:46)
13 Clare Feary Die Kinder Junrei 2 5:58:00 13.6, 12.9 13.41 30, 41, 44 (Avg:42)
23 Anita Ashby Brookleigh Shiralee 3 6:55:00 12.0, 10.8 11.57 36, 42, 50 (Avg:46)
20 Erica Allan Kaminya 4 7:02:00 12.3, 10.0 11.37 35, 47, 54 (Avg:50)
18 Noni Seagrim Coolinda Park Louisville 4 7:02:00 12.4, 9.9 11.37 40, 40, 45 (Avg:42)
27 Talea Hasko-Stewart Blake's Heaven Ventura 6 7:56:00 10.3, 9.6 10.08 40, 48, 56 (Avg:52)
25 Lauren Stevenson Blake's Heaven Bombora 6 7:56:00 10.3, 9.6 10.08 38, 51, 56 (Avg:53)
4 John Symons Forest Dale Xasperation 8 8:22:00 10.3, 8.4 9.56 55, 52, 59 (Avg:55)
16 Aaron Dowling Warren Park Kiara 9 8:23:00 10.7, 8.0 9.54 29, 48, 51 (Avg:49)
17 Tayla Warren Warren Park O.B. One 9 8:23:00 10.7, 8.0 9.54 42, 37, 44 (Avg:40)
29 Kayte Barnard S'Shaada Quill 11 8:30:00 10.7, 7.8 9.41 43, 53, 60 (Avg:56)
5 Rowena Robinson Karumba Nazrani Out of Time L2 0:00:00 8.4, 7.4 - 35, 43, 47 (Avg:45)
21 Alamdar Dastani Littlebanks Toby Withdrawn L1 0:00:00 - - 48, 47 (Avg:47)
Lightweight
15 April Newman Tarnette 1 (BC) 5:58:00 13.6, 12.9 13.41 32, 35, 42 (Avg:38)
24 Adeline Gibson Wantley Kaliph 2 6:55:00 12.0, 10.7 11.57 38, 50, 52 (Avg:51)
19 Louise Stevens Nicari Shareefa 3 7:02:00 12.4, 9.9 11.37 40, 43, 50 (Avg:46)
11 Kaliana Curtis Lentara Park Heather 4 7:55:00 10.3, 9.6 10.11 40, 46, 50 (Avg:48)
3 Vetea Facchini Pevensey Prosecco 4 7:55:00 10.3, 9.7 10.11 45, 40, 43 (Avg:41)
26 April Taylor Blake's Heaven Dubonnet 4 7:55:00 10.3, 9.6 10.11 35, 45, 52 (Avg:48)
7 Sue Todd Shalacey Bear 7 8:22:00 10.3, 8.4 9.56 40, 48, 48 (Avg:48)
28 Mary Hollingsworth Saneline Malika 8 8:30:00 10.7, 7.8 9.41 44, 45, 48 (Avg:46)
22 Maddy Collins CJ Withdrawn L1 0:00:00 - - 38, 37 (Avg:37)
Junior
6 Levi Robinson Karumba Beamish Out of Time L2 0:00:00 8.4, 7.4 - 30, 34, 56 (Avg:45)
1 Georgia Curry Sharahd Chemoss Lame L1 0:00:00 10.3 - 34, 42 (Avg:42)